Time;durP1;ratioP1;P1;durP2;ratioP2;P2;SDS_P1;SDS_P2;PMS_P1;PMS_P2;Temp;Humidity;BMP_temperature;BMP_pressure;BME280_temperature;BME280_humidity;BME280_pressure;Samples;Min_cycle;Max_cycle;Signal;HPM_P1;HPM_P2
2021/10/19 00:02:04;;;;;;;5.25;3.60;;;15.80;72.10;;;;;;4898673;29;20486;-83
2021/10/19 00:04:29;;;;;;;4.95;3.47;;;15.80;71.50;;;;;;4867633;29;20385;-83
2021/10/19 00:06:55;;;;;;;4.55;3.45;;;15.80;71.50;;;;;;4882789;29;20478;-83
2021/10/19 00:09:21;;;;;;;4.53;3.35;;;15.80;71.50;;;;;;4882760;29;20041;-83
2021/10/19 00:11:47;;;;;;;4.93;3.45;;;15.80;71.50;;;;;;4867301;29;20048;-82
2021/10/19 00:14:13;;;;;;;4.97;3.72;;;15.80;71.50;;;;;;4867040;29;20482;-82
2021/10/19 00:16:39;;;;;;;4.65;3.47;;;15.80;71.50;;;;;;4899277;29;20063;-83
2021/10/19 00:19:04;;;;;;;5.20;3.72;;;15.80;71.50;;;;;;4899235;29;20079;-83
2021/10/19 00:21:31;;;;;;;5.00;3.75;;;15.80;71.50;;;;;;4898071;29;20061;-82
2021/10/19 00:23:57;;;;;;;4.53;3.35;;;15.80;71.50;;;;;;4882449;29;20056;-83
2021/10/19 00:26:23;;;;;;;5.68;4.03;;;15.90;71.50;;;;;;4882087;29;20037;-82
2021/10/19 00:28:49;;;;;;;5.07;3.75;;;15.90;71.50;;;;;;4882449;29;20072;-83
2021/10/19 00:31:15;;;;;;;5.18;3.40;;;15.80;71.50;;;;;;4866738;29;20048;-84
2021/10/19 00:33:40;;;;;;;5.15;3.53;;;15.80;71.50;;;;;;4882685;29;20537;-83
2021/10/19 00:36:06;;;;;;;5.65;3.70;;;15.80;71.50;;;;;;4867100;29;20072;-84
2021/10/19 00:38:32;;;;;;;4.78;3.42;;;15.90;71.60;;;;;;4898642;29;20466;-83
2021/10/19 00:40:58;;;;;;;5.30;3.90;;;15.90;71.60;;;;;;4882533;29;20035;-83
2021/10/19 00:43:26;;;;;;;5.32;3.75;;;15.80;71.50;;;;;;4882339;29;20037;-82
2021/10/19 00:45:52;;;;;;;4.82;3.45;;;15.90;71.60;;;;;;4870915;29;20021;-84
2021/10/19 00:48:20;;;;;;;4.78;3.55;;;15.90;71.60;;;;;;4886410;29;20064;-84
2021/10/19 00:50:47;;;;;;;4.82;3.50;;;15.90;71.60;;;;;;4871713;29;20060;-84
2021/10/19 00:53:15;;;;;;;5.00;3.50;;;15.80;71.50;;;;;;4886202;29;20048;-84
2021/10/19 00:55:41;;;;;;;5.65;3.88;;;15.80;71.60;;;;;;4871121;29;20439;-83
2021/10/19 00:58:07;;;;;;;5.60;3.58;;;15.80;71.50;;;;;;4902926;29;20131;-84
2021/10/19 01:00:33;;;;;;;4.63;3.35;;;15.80;71.60;;;;;;4885956;29;20459;-83
2021/10/19 01:03:00;;;;;;;5.20;3.80;;;15.90;71.60;;;;;;4885725;29;20402;-83
2021/10/19 01:05:27;;;;;;;5.80;3.67;;;15.90;71.60;;;;;;4886005;29;20488;-82
2021/10/19 01:07:53;;;;;;;4.68;3.40;;;15.90;71.60;;;;;;4886192;29;20037;-83
2021/10/19 01:10:19;;;;;;;4.85;3.53;;;15.80;71.50;;;;;;4918148;29;20473;-85
2021/10/19 01:12:44;;;;;;;4.82;3.55;;;15.90;71.60;;;;;;4870443;29;20459;-84
2021/10/19 01:15:16;;;;;;;6.05;3.70;;;15.90;71.60;;;;;;4902468;29;20116;-84
2021/10/19 01:17:47;;;;;;;4.57;3.60;;;15.90;71.60;;;;;;4885706;29;20024;-84
2021/10/19 01:20:16;;;;;;;4.95;3.92;;;15.80;71.60;;;;;;4902478;29;20058;-84
2021/10/19 01:22:41;;;;;;;4.78;3.30;;;15.90;71.60;;;;;;4885913;29;20562;-84
2021/10/19 01:25:08;;;;;;;4.55;3.40;;;15.90;71.60;;;;;;4885387;29;20131;-83
2021/10/19 01:27:44;;;;;;;5.13;3.70;;;15.90;71.60;;;;;;4885730;29;20478;-83
2021/10/19 01:30:10;;;;;;;4.40;3.42;;;15.80;71.70;;;;;;4917634;29;20481;-83
2021/10/19 01:32:36;;;;;;;4.50;3.30;;;15.80;71.60;;;;;;4885149;29;20166;-83
2021/10/19 01:35:02;;;;;;;5.07;3.58;;;15.80;71.60;;;;;;4900984;29;20041;-83
2021/10/19 01:37:28;;;;;;;4.40;3.35;;;15.80;71.60;;;;;;4900948;29;20025;-83
2021/10/19 01:39:53;;;;;;;4.72;3.45;;;15.90;71.60;;;;;;4885629;29;20088;-83
2021/10/19 01:42:19;;;;;;;4.72;3.20;;;15.90;71.60;;;;;;4900709;29;20485;-84
2021/10/19 01:44:45;;;;;;;5.03;3.80;;;15.80;71.60;;;;;;4885912;29;20075;-83
2021/10/19 01:47:11;;;;;;;5.82;3.85;;;15.90;71.60;;;;;;4871462;29;20029;-83
2021/10/19 01:49:36;;;;;;;5.13;3.20;;;15.90;71.60;;;;;;4902323;29;20062;-83
2021/10/19 01:52:02;;;;;;;4.63;3.38;;;15.80;71.60;;;;;;4870322;29;20041;-84
2021/10/19 01:54:28;;;;;;;5.28;3.67;;;15.80;71.60;;;;;;4901721;29;20120;-84
2021/10/19 01:56:54;;;;;;;5.10;3.60;;;15.80;71.60;;;;;;4884805;29;20029;-84
2021/10/19 01:59:19;;;;;;;4.78;3.33;;;15.80;71.60;;;;;;4885560;29;20043;-83
2021/10/19 02:01:45;;;;;;;5.60;3.90;;;15.90;71.60;;;;;;4870299;29;20041;-83
2021/10/19 02:04:11;;;;;;;4.10;3.00;;;15.90;71.60;;;;;;4870258;29;20044;-83
2021/10/19 02:06:37;;;;;;;4.35;3.33;;;15.90;71.60;;;;;;4869856;29;20033;-83
2021/10/19 02:09:02;;;;;;;4.90;3.58;;;15.90;71.60;;;;;;4885932;29;20075;-83
2021/10/19 02:11:28;;;;;;;4.30;3.40;;;15.90;71.60;;;;;;4869463;29;20566;-83
2021/10/19 02:13:54;;;;;;;4.93;3.55;;;15.90;71.60;;;;;;4885456;29;20033;-83
2021/10/19 02:16:20;;;;;;;4.97;3.65;;;15.90;71.60;;;;;;4869295;29;20037;-83
2021/10/19 02:18:45;;;;;;;4.60;3.40;;;15.90;71.60;;;;;;4869758;29;20104;-83
2021/10/19 02:21:11;;;;;;;4.65;3.47;;;15.90;71.60;;;;;;4868980;29;20056;-83
2021/10/19 02:23:37;;;;;;;4.70;3.63;;;15.90;71.60;;;;;;4884654;29;20043;-83
2021/10/19 02:26:02;;;;;;;5.60;3.60;;;15.90;71.60;;;;;;4884507;29;20036;-83
2021/10/19 02:28:28;;;;;;;4.57;3.60;;;15.90;71.70;;;;;;4884748;29;20053;-83
2021/10/19 02:30:54;;;;;;;4.05;3.15;;;15.90;71.70;;;;;;4901241;29;20040;-83
2021/10/19 02:33:21;;;;;;;4.80;3.50;;;15.90;71.60;;;;;;4884498;29;20037;-83
2021/10/19 02:35:47;;;;;;;4.78;3.47;;;15.90;71.60;;;;;;4899666;29;20043;-83
2021/10/19 02:38:13;;;;;;;5.25;3.53;;;15.90;71.70;;;;;;4899846;29;20024;-83
2021/10/19 02:40:39;;;;;;;5.05;3.50;;;15.90;71.70;;;;;;4884839;29;20484;-83
2021/10/19 02:43:05;;;;;;;5.00;3.60;;;15.90;71.70;;;;;;4884492;29;20419;-82
2021/10/19 02:45:31;;;;;;;3.95;3.13;;;15.90;71.70;;;;;;4884650;29;20033;-83
2021/10/19 02:47:56;;;;;;;5.28;3.50;;;15.90;71.60;;;;;;4868778;29;20111;-83
2021/10/19 02:50:22;;;;;;;4.63;3.45;;;15.90;71.70;;;;;;4868763;29;20084;-83
2021/10/19 02:52:48;;;;;;;4.68;3.53;;;15.90;71.70;;;;;;4899743;29;20025;-82
2021/10/19 02:55:16;;;;;;;4.90;3.40;;;15.90;71.70;;;;;;4883895;29;20167;-83
2021/10/19 02:57:44;;;;;;;4.65;3.40;;;15.90;71.70;;;;;;4883855;29;20029;-83
2021/10/19 03:00:10;;;;;;;4.80;3.58;;;15.90;71.70;;;;;;4899478;29;20033;-83
2021/10/19 03:02:36;;;;;;;4.97;3.63;;;15.90;71.70;;;;;;4868968;29;20053;-83
2021/10/19 03:05:02;;;;;;;4.32;3.30;;;16.00;71.80;;;;;;4868327;29;20038;-83
2021/10/19 03:07:28;;;;;;;5.38;3.55;;;15.90;71.70;;;;;;4883965;29;20044;-83
2021/10/19 03:09:54;;;;;;;4.75;3.42;;;15.90;71.70;;;;;;4899881;29;20036;-83
2021/10/19 03:12:19;;;;;;;4.72;3.33;;;15.90;71.70;;;;;;4900940;29;20367;-83
2021/10/19 03:14:45;;;;;;;4.18;3.25;;;16.00;71.80;;;;;;4899516;29;20037;-83
2021/10/19 03:17:11;;;;;;;5.50;3.85;;;15.90;71.70;;;;;;4900130;29;20033;-82
2021/10/19 03:19:37;;;;;;;5.03;3.60;;;16.00;71.80;;;;;;4882955;29;20033;-83
2021/10/19 03:22:03;;;;;;;4.57;3.63;;;15.90;71.80;;;;;;4895476;29;20060;-83
2021/10/19 03:24:29;;;;;;;5.10;3.20;;;16.00;71.80;;;;;;4881434;29;20076;-83
2021/10/19 03:26:54;;;;;;;4.75;3.47;;;16.00;71.80;;;;;;4880042;29;20064;-83
2021/10/19 03:29:21;;;;;;;5.18;3.67;;;16.00;71.80;;;;;;4864897;29;20025;-83
2021/10/19 03:31:47;;;;;;;4.40;3.35;;;16.00;71.80;;;;;;4880146;29;20049;-83
2021/10/19 03:34:13;;;;;;;5.07;3.65;;;16.00;71.80;;;;;;4880066;29;20029;-83
2021/10/19 03:36:39;;;;;;;4.97;3.47;;;16.00;71.90;;;;;;4880219;29;20029;-83
2021/10/19 03:39:05;;;;;;;4.60;3.20;;;16.00;71.80;;;;;;4864922;29;20033;-82
2021/10/19 03:41:31;;;;;;;5.90;3.88;;;16.00;71.90;;;;;;4864622;29;20057;-83
2021/10/19 03:43:57;;;;;;;5.15;3.60;;;16.00;71.90;;;;;;4864208;29;20037;-82
2021/10/19 03:46:23;;;;;;;5.18;3.67;;;16.00;71.90;;;;;;4864224;29;20028;-83
2021/10/19 03:48:48;;;;;;;4.85;3.25;;;16.00;71.90;;;;;;4911903;29;20033;-83
2021/10/19 03:51:14;;;;;;;4.63;3.33;;;16.00;71.80;;;;;;4864163;29;20040;-83
2021/10/19 03:53:41;;;;;;;4.45;3.22;;;16.00;71.90;;;;;;4895553;29;20376;-83
2021/10/19 03:56:07;;;;;;;5.50;3.60;;;16.00;71.90;;;;;;4865128;29;20093;-83
2021/10/19 03:58:33;;;;;;;4.78;3.65;;;16.00;71.90;;;;;;4879756;29;20037;-81
2021/10/19 04:00:59;;;;;;;4.28;3.22;;;16.10;71.90;;;;;;4879071;29;20040;-81
2021/10/19 04:03:25;;;;;;;4.75;3.40;;;16.00;71.90;;;;;;4879397;29;20115;-81
2021/10/19 04:05:52;;;;;;;5.00;3.70;;;16.10;72.50;;;;;;4894812;29;20174;-82
2021/10/19 04:08:18;;;;;;;4.63;3.20;;;16.10;71.90;;;;;;4880147;29;20044;-82
2021/10/19 04:10:43;;;;;;;4.97;3.45;;;16.10;71.90;;;;;;4863603;29;20037;-81
2021/10/19 04:13:10;;;;;;;5.15;3.85;;;16.10;71.90;;;;;;4879113;29;20394;-82
2021/10/19 04:15:35;;;;;;;4.80;3.55;;;16.10;71.90;;;;;;4864050;29;20475;-83
2021/10/19 04:18:02;;;;;;;4.30;2.90;;;16.10;71.90;;;;;;4878983;29;20044;-82
2021/10/19 04:20:27;;;;;;;4.90;3.45;;;16.10;71.90;;;;;;4909947;29;20056;-83
2021/10/19 04:22:53;;;;;;;4.38;3.17;;;16.10;71.90;;;;;;4864083;29;20048;-83
2021/10/19 04:25:19;;;;;;;4.28;3.30;;;16.10;71.90;;;;;;4864490;29;20040;-83
2021/10/19 04:27:45;;;;;;;4.43;3.47;;;16.10;71.90;;;;;;4879919;29;20029;-84
2021/10/19 04:30:11;;;;;;;4.57;3.20;;;16.20;72.00;;;;;;4895184;29;20463;-83
2021/10/19 04:32:37;;;;;;;5.55;3.67;;;16.20;72.00;;;;;;4848870;29;20076;-81
2021/10/19 04:35:04;;;;;;;4.65;3.28;;;16.20;71.90;;;;;;4879056;29;20035;-82
2021/10/19 04:37:29;;;;;;;4.43;3.22;;;16.20;72.00;;;;;;4879098;29;20033;-82
2021/10/19 04:39:55;;;;;;;5.10;3.42;;;16.10;71.90;;;;;;4849096;29;20045;-83
2021/10/19 04:42:21;;;;;;;4.00;2.95;;;16.20;72.00;;;;;;4880292;29;20056;-81
2021/10/19 04:44:48;;;;;;;4.30;3.10;;;16.20;71.90;;;;;;4894750;29;20064;-81
2021/10/19 04:47:15;;;;;;;5.00;3.60;;;16.20;72.00;;;;;;4863488;29;20375;-82
2021/10/19 04:49:41;;;;;;;4.28;3.17;;;16.20;72.00;;;;;;4910075;29;20448;-84
2021/10/19 04:52:06;;;;;;;4.93;3.20;;;16.20;71.90;;;;;;4848116;29;20048;-85
2021/10/19 04:54:32;;;;;;;4.63;3.50;;;16.20;71.90;;;;;;4879367;29;20389;-82
2021/10/19 04:56:58;;;;;;;4.40;3.13;;;16.20;71.90;;;;;;4879516;29;20029;-81
2021/10/19 04:59:24;;;;;;;4.55;3.22;;;16.20;71.90;;;;;;4878920;29;20134;-83
2021/10/19 05:01:50;;;;;;;4.63;3.25;;;16.20;72.00;;;;;;4863600;29;20041;-85
2021/10/19 05:04:15;;;;;;;4.07;3.00;;;16.30;72.00;;;;;;4910644;29;20049;-89
2021/10/19 05:06:42;;;;;;;4.55;3.38;;;16.20;71.90;;;;;;4880321;29;20029;-84
2021/10/19 05:09:11;;;;;;;5.30;3.33;;;16.30;71.90;;;;;;4880721;29;20130;-86
2021/10/19 05:11:37;;;;;;;4.30;3.33;;;16.30;71.90;;;;;;4863797;29;20041;-84
2021/10/19 05:14:03;;;;;;;5.20;3.28;;;16.30;71.90;;;;;;4863799;29;20041;-86
2021/10/19 05:16:29;;;;;;;4.80;3.30;;;16.30;71.90;;;;;;4879039;29;20037;-83
2021/10/19 05:18:54;;;;;;;3.80;2.90;;;16.30;71.90;;;;;;4879107;29;20044;-84
2021/10/19 05:21:20;;;;;;;4.22;3.08;;;16.30;71.90;;;;;;4863413;29;20495;-84
2021/10/19 05:23:46;;;;;;;4.28;3.10;;;16.30;71.90;;;;;;4863822;29;20393;-85
2021/10/19 05:26:13;;;;;;;4.32;3.22;;;16.30;71.90;;;;;;4863763;29;20033;-84
2021/10/19 05:28:39;;;;;;;4.32;3.15;;;16.30;71.90;;;;;;4879288;29;20478;-83
2021/10/19 05:31:05;;;;;;;4.53;3.38;;;16.30;71.90;;;;;;4850724;29;20036;-85
2021/10/19 05:33:30;;;;;;;4.20;3.13;;;16.30;71.90;;;;;;4883358;29;20061;-85
2021/10/19 05:35:56;;;;;;;4.90;3.58;;;16.30;71.90;;;;;;4867223;29;20043;-86
2021/10/19 05:38:22;;;;;;;5.30;3.53;;;16.40;71.90;;;;;;4853222;29;20128;-85
2021/10/19 05:40:48;;;;;;;4.20;3.03;;;16.40;71.90;;;;;;4899225;29;20033;-85
2021/10/19 05:43:13;;;;;;;3.85;2.90;;;16.40;71.90;;;;;;4881974;29;20067;-85
2021/10/19 05:45:39;;;;;;;4.85;3.08;;;16.40;71.90;;;;;;4867165;29;20044;-84
2021/10/19 05:48:05;;;;;;;4.80;3.17;;;16.40;71.90;;;;;;4882239;29;20048;-84
2021/10/19 05:50:33;;;;;;;3.70;2.95;;;16.40;71.90;;;;;;4897878;29;20036;-84
2021/10/19 05:52:59;;;;;;;4.13;2.90;;;16.40;71.90;;;;;;4898618;29;20136;-82
2021/10/19 05:55:25;;;;;;;5.20;3.65;;;16.40;71.90;;;;;;4882442;29;20033;-83
2021/10/19 05:57:51;;;;;;;4.85;3.25;;;16.40;71.90;;;;;;4882328;29;20390;-83
2021/10/19 06:00:17;;;;;;;4.25;3.10;;;16.40;71.80;;;;;;4851504;29;20040;-83
2021/10/19 06:02:42;;;;;;;3.70;3.05;;;16.40;71.80;;;;;;4882722;29;20120;-82
2021/10/19 06:05:08;;;;;;;4.38;3.08;;;16.50;71.90;;;;;;4897321;29;20037;-82
2021/10/19 06:07:34;;;;;;;4.55;3.20;;;16.40;71.80;;;;;;4881640;29;20065;-82
2021/10/19 06:10:00;;;;;;;4.00;3.03;;;16.50;71.90;;;;;;4882034;29;20037;-82
2021/10/19 06:12:27;;;;;;;5.05;3.13;;;16.50;71.90;;;;;;4882267;29;20037;-82
2021/10/19 06:14:53;;;;;;;4.20;3.10;;;16.50;71.80;;;;;;4883085;29;20041;-82
2021/10/19 06:17:18;;;;;;;4.90;3.55;;;16.50;71.80;;;;;;4881556;29;20380;-83
2021/10/19 06:19:44;;;;;;;4.28;3.10;;;16.50;71.90;;;;;;4866723;29;20429;-82
2021/10/19 06:22:10;;;;;;;4.18;3.20;;;16.50;71.90;;;;;;4866146;29;20092;-82
2021/10/19 06:24:35;;;;;;;4.05;2.83;;;16.50;71.80;;;;;;4866665;29;20496;-82
2021/10/19 06:27:01;;;;;;;4.30;3.10;;;16.50;71.80;;;;;;4866055;29;20429;-83
2021/10/19 06:29:29;;;;;;;3.67;2.85;;;16.50;71.80;;;;;;4880876;29;20045;-83
2021/10/19 06:31:55;;;;;;;3.65;2.75;;;16.50;71.80;;;;;;4897830;29;20060;-83
2021/10/19 06:34:21;;;;;;;4.00;2.90;;;16.50;71.80;;;;;;4870603;29;20037;-84
2021/10/19 06:36:47;;;;;;;3.70;2.85;;;16.50;71.80;;;;;;4881532;29;20037;-83
2021/10/19 06:39:12;;;;;;;4.13;3.00;;;16.50;71.80;;;;;;4881728;29;20029;-84
2021/10/19 06:41:38;;;;;;;3.80;3.08;;;16.60;71.80;;;;;;4880918;29;20073;-84
2021/10/19 06:44:04;;;;;;;4.22;2.97;;;16.50;71.80;;;;;;4882715;29;20074;-83
2021/10/19 06:46:30;;;;;;;3.90;2.80;;;16.60;71.80;;;;;;4882742;29;20131;-83
2021/10/19 06:48:56;;;;;;;3.88;2.88;;;16.50;71.80;;;;;;4914095;29;20039;-83
2021/10/19 06:51:22;;;;;;;4.07;2.97;;;16.50;71.80;;;;;;4882483;29;20108;-84
2021/10/19 06:53:48;;;;;;;5.20;2.97;;;16.60;71.80;;;;;;4883299;29;20033;-83
2021/10/19 06:56:13;;;;;;;4.18;2.78;;;16.60;71.80;;;;;;4882173;29;20483;-83
2021/10/19 06:58:39;;;;;;;3.42;2.78;;;16.60;71.80;;;;;;4897569;29;20064;-83
2021/10/19 07:01:05;;;;;;;3.85;2.88;;;16.60;71.80;;;;;;4882872;29;20139;-83
2021/10/19 07:03:32;;;;;;;3.95;2.80;;;16.60;71.80;;;;;;4851923;29;20025;-83
2021/10/19 07:06:05;;;;;;;3.80;2.80;;;16.60;71.80;;;;;;4916172;29;20025;-83
2021/10/19 07:08:35;;;;;;;3.90;2.97;;;16.60;71.80;;;;;;4884564;29;20036;-83
2021/10/19 07:11:01;;;;;;;3.00;2.40;;;16.60;71.80;;;;;;4882209;29;20021;-82
2021/10/19 07:13:27;;;;;;;3.33;2.67;;;16.60;71.90;;;;;;4869325;29;20079;-83
2021/10/19 07:15:55;;;;;;;4.75;3.13;;;16.60;71.80;;;;;;4880418;29;20060;-82
2021/10/19 07:18:22;;;;;;;4.07;2.97;;;16.60;71.80;;;;;;4881947;29;20025;-83
2021/10/19 07:20:49;;;;;;;3.70;2.72;;;16.70;72.50;;;;;;4911837;29;20053;-84
2021/10/19 07:23:16;;;;;;;3.30;2.65;;;16.60;71.80;;;;;;4880635;29;20043;-84
2021/10/19 07:25:43;;;;;;;3.75;2.88;;;16.70;71.90;;;;;;4880591;29;20512;-83
2021/10/19 07:28:09;;;;;;;3.08;2.53;;;16.70;71.90;;;;;;4912169;29;20120;-84
2021/10/19 07:30:34;;;;;;;3.33;2.53;;;16.70;71.90;;;;;;4880549;29;20068;-83
2021/10/19 07:33:00;;;;;;;3.55;2.53;;;16.70;71.80;;;;;;4880184;29;20033;-83
2021/10/19 07:35:26;;;;;;;3.53;2.53;;;16.70;71.80;;;;;;4880326;29;20094;-83
2021/10/19 07:37:52;;;;;;;3.42;2.40;;;16.60;71.80;;;;;;4895986;29;20056;-83
2021/10/19 07:40:20;;;;;;;2.97;2.45;;;16.70;71.90;;;;;;4895840;29;20478;-82
2021/10/19 07:42:46;;;;;;;3.28;2.55;;;16.70;71.80;;;;;;4896169;29;20029;-84
2021/10/19 07:45:13;;;;;;;3.40;2.63;;;16.70;71.80;;;;;;4911654;29;20068;-82
2021/10/19 07:47:42;;;;;;;3.75;2.63;;;16.70;71.80;;;;;;4880787;29;20033;-82
2021/10/19 07:50:09;;;;;;;3.83;2.90;;;16.70;71.90;;;;;;4880996;29;20029;-82
2021/10/19 07:52:35;;;;;;;3.08;2.45;;;16.70;71.80;;;;;;4895298;29;20129;-83
2021/10/19 07:55:00;;;;;;;3.05;2.30;;;16.80;71.90;;;;;;4863536;29;20124;-83
2021/10/19 07:57:26;;;;;;;3.67;2.60;;;16.80;71.90;;;;;;4864276;29;20052;-82
2021/10/19 07:59:52;;;;;;;3.15;2.50;;;16.80;71.90;;;;;;4864447;29;20551;-82
2021/10/19 08:02:18;;;;;;;3.80;2.60;;;16.70;71.80;;;;;;4879625;29;20041;-82
2021/10/19 08:04:43;;;;;;;3.53;2.60;;;16.80;71.90;;;;;;4880767;29;20459;-82
2021/10/19 08:07:09;;;;;;;3.85;2.70;;;16.80;71.90;;;;;;4879174;29;20044;-82
2021/10/19 08:09:35;;;;;;;3.10;2.47;;;16.80;71.90;;;;;;4879200;29;20029;-83
2021/10/19 08:12:00;;;;;;;4.00;2.60;;;16.80;71.90;;;;;;4879381;29;20045;-82
2021/10/19 08:14:26;;;;;;;2.92;2.45;;;16.80;71.90;;;;;;4863738;29;20041;-82
2021/10/19 08:16:52;;;;;;;4.25;2.97;;;16.80;71.90;;;;;;4879282;29;20538;-82
2021/10/19 08:19:17;;;;;;;4.10;2.75;;;16.80;71.80;;;;;;4879201;29;20052;-82
2021/10/19 08:21:43;;;;;;;2.75;2.10;;;16.80;71.90;;;;;;4863528;29;20064;-82
2021/10/19 08:24:09;;;;;;;2.95;2.30;;;16.80;71.80;;;;;;4895668;29;20037;-83
2021/10/19 08:26:35;;;;;;;4.25;2.40;;;16.90;71.90;;;;;;4863792;29;20037;-82
2021/10/19 08:29:03;;;;;;;3.53;2.40;;;16.90;71.90;;;;;;4879308;29;20032;-82
2021/10/19 08:31:30;;;;;;;3.75;2.53;;;16.90;71.90;;;;;;4880091;29;20078;-82
2021/10/19 08:33:56;;;;;;;3.42;2.40;;;16.90;71.90;;;;;;4863283;29;20105;-82
2021/10/19 08:36:22;;;;;;;3.70;2.60;;;16.90;71.90;;;;;;4879367;29;20485;-82
2021/10/19 08:38:49;;;;;;;3.22;2.45;;;16.90;71.90;;;;;;4863859;29;20037;-82
2021/10/19 08:41:17;;;;;;;3.08;2.33;;;16.90;71.90;;;;;;4879036;29;20056;-82
2021/10/19 08:43:44;;;;;;;3.13;2.40;;;16.90;71.90;;;;;;4880205;29;20122;-82
2021/10/19 08:46:12;;;;;;;3.00;2.38;;;17.00;72.00;;;;;;4878869;29;20387;-82
2021/10/19 08:48:38;;;;;;;2.97;2.38;;;17.00;72.00;;;;;;4863305;29;20029;-82
2021/10/19 08:51:06;;;;;;;3.03;2.33;;;17.00;72.00;;;;;;4910209;29;20045;-83
2021/10/19 08:53:36;;;;;;;3.90;2.20;;;17.00;72.00;;;;;;4880210;29;20364;-82
2021/10/19 08:56:04;;;;;;;3.35;2.60;;;17.00;72.00;;;;;;4879666;29;20056;-82
2021/10/19 08:58:30;;;;;;;2.78;2.10;;;17.00;71.90;;;;;;4863466;29;20041;-82
2021/10/19 09:01:07;;;;;;;3.25;2.42;;;17.00;72.00;;;;;;4878893;29;20547;-83
2021/10/19 09:03:33;;;;;;;3.42;2.63;;;17.00;72.00;;;;;;4879920;29;20037;-83
2021/10/19 09:06:00;;;;;;;2.80;2.22;;;17.10;71.90;;;;;;4881891;29;20355;-83
2021/10/19 09:08:26;;;;;;;3.08;2.42;;;17.10;72.00;;;;;;4898163;29;20033;-83
2021/10/19 09:10:53;;;;;;;3.25;2.50;;;17.10;71.90;;;;;;4867097;29;20044;-82
2021/10/19 09:13:20;;;;;;;3.95;2.60;;;17.10;71.90;;;;;;4883680;29;20033;-83
2021/10/19 09:15:48;;;;;;;3.83;2.65;;;17.10;71.90;;;;;;4882382;29;20045;-83
2021/10/19 09:18:17;;;;;;;3.13;2.20;;;17.10;71.90;;;;;;4882328;29;20033;-83
2021/10/19 09:20:46;;;;;;;3.08;2.40;;;17.20;72.00;;;;;;4866750;29;20060;-83
2021/10/19 09:23:14;;;;;;;2.70;2.15;;;17.20;72.00;;;;;;4883254;29;20029;-83
2021/10/19 09:25:41;;;;;;;2.33;2.03;;;17.20;72.00;;;;;;4866743;29;20497;-83
2021/10/19 09:28:11;;;;;;;2.88;2.40;;;17.20;72.00;;;;;;4883528;29;20045;-83
2021/10/19 09:30:51;;;;;;;3.15;2.30;;;17.30;72.00;;;;;;4882421;29;20040;-82
2021/10/19 09:33:19;;;;;;;2.63;2.05;;;17.30;72.10;;;;;;4913533;29;20045;-83
2021/10/19 09:35:48;;;;;;;2.70;2.25;;;17.30;72.00;;;;;;4913535;29;20057;-82
2021/10/19 09:38:14;;;;;;;2.88;2.10;;;17.30;72.10;;;;;;4882770;29;20527;-83
2021/10/19 09:40:46;;;;;;;2.33;2.10;;;17.30;72.00;;;;;;4851550;29;20033;-83
2021/10/19 09:43:15;;;;;;;2.85;1.80;;;17.30;72.00;;;;;;4883370;29;20037;-84
2021/10/19 09:45:44;;;;;;;2.47;2.10;;;17.30;72.00;;;;;;4915078;29;20032;-83
2021/10/19 09:48:17;;;;;;;2.88;2.28;;;17.30;72.00;;;;;;4884301;29;20031;-84
2021/10/19 09:50:45;;;;;;;2.50;2.00;;;17.40;72.10;;;;;;4882635;29;20061;-84
2021/10/19 09:53:12;;;;;;;2.80;2.17;;;17.40;72.00;;;;;;4883579;29;20128;-84
2021/10/19 09:55:38;;;;;;;2.83;1.92;;;17.40;72.00;;;;;;4881852;29;20037;-83
2021/10/19 09:58:05;;;;;;;2.63;2.20;;;17.40;72.00;;;;;;4913062;29;20047;-83
2021/10/19 10:00:33;;;;;;;2.22;2.03;;;17.40;72.00;;;;;;4881446;29;20089;-83
2021/10/19 10:03:04;;;;;;;2.33;1.80;;;17.40;71.90;;;;;;4882745;29;20493;-83
2021/10/19 10:05:35;;;;;;;2.00;1.80;;;17.40;71.90;;;;;;4882968;29;20060;-82
2021/10/19 10:08:02;;;;;;;2.55;1.98;;;17.50;72.00;;;;;;4882006;29;20089;-83
2021/10/19 10:10:28;;;;;;;2.20;1.95;;;17.50;72.00;;;;;;4882315;29;20029;-83
2021/10/19 10:13:00;;;;;;;2.13;1.90;;;17.50;71.90;;;;;;4882223;29;20128;-83
2021/10/19 10:15:31;;;;;;;1.92;1.73;;;17.50;72.00;;;;;;4883327;29;20065;-83
2021/10/19 10:18:01;;;;;;;2.17;1.80;;;17.50;71.90;;;;;;4912758;29;20047;-83
2021/10/19 10:20:36;;;;;;;2.33;1.80;;;17.60;72.00;;;;;;4881614;29;20057;-84
2021/10/19 10:23:15;;;;;;;;;;;17.60;72.00;;;;;;4882239;29;20044;-83
2021/10/19 10:25:42;;;;;;;1.52;1.42;;;17.60;71.90;;;;;;4882863;29;19918;-84
2021/10/19 10:28:29;;;;;;;1.58;1.48;;;17.60;71.80;;;;;;4866153;29;20077;-84
2021/10/19 10:30:57;;;;;;;2.10;1.90;;;17.60;71.90;;;;;;4882448;29;20085;-84
2021/10/19 10:33:37;;;;;;;1.88;1.58;;;17.60;71.90;;;;;;4866716;29;20044;-84
2021/10/19 10:36:10;;;;;;;1.85;1.65;;;17.60;72.00;;;;;;4912966;29;20033;-84
2021/10/19 10:38:38;;;;;;;1.85;1.52;;;17.70;72.00;;;;;;4881043;29;20108;-83
2021/10/19 10:41:15;;;;;;;1.95;1.63;;;17.70;71.90;;;;;;4881164;29;20033;-83
2021/10/19 10:43:42;;;;;;;1.98;1.70;;;17.70;72.00;;;;;;4896652;29;20036;-83
2021/10/19 10:46:19;;;;;;;1.70;1.60;;;17.70;71.90;;;;;;4881132;29;20115;-83
2021/10/19 10:48:45;;;;;;;1.52;1.42;;;17.80;72.00;;;;;;4881583;29;20494;-83
2021/10/19 10:51:14;;;;;;;2.47;1.48;;;17.80;71.90;;;;;;4865130;29;20048;-83
2021/10/19 10:53:46;;;;;;;1.48;1.38;;;17.80;71.90;;;;;;4912069;29;20127;-83
2021/10/19 10:56:15;;;;;;;1.60;1.50;;;17.80;71.90;;;;;;4896940;29;20123;-82
2021/10/19 10:58:43;;;;;;;1.50;1.40;;;17.90;71.90;;;;;;4881803;29;20048;-83
2021/10/19 11:01:24;;;;;;;1.23;1.13;;;17.90;71.90;;;;;;4865349;29;20092;-83
2021/10/19 11:03:54;;;;;;;1.50;1.40;;;17.90;71.90;;;;;;4880839;29;20029;-84
2021/10/19 11:06:22;;;;;;;1.50;1.40;;;17.90;71.80;;;;;;4881425;29;20040;-84
2021/10/19 11:09:00;;;;;;;1.30;1.20;;;17.90;71.80;;;;;;4865405;29;20028;-83
2021/10/19 11:11:26;;;;;;;1.50;1.40;;;18.00;71.90;;;;;;4880727;29;20128;-83
2021/10/19 11:14:00;;;;;;;1.50;1.40;;;18.00;71.80;;;;;;4881390;29;20478;-82
2021/10/19 11:16:29;;;;;;;1.70;1.60;;;18.00;71.80;;;;;;4880797;29;20583;-83
2021/10/19 11:18:55;;;;;;;2.13;1.65;;;18.00;71.80;;;;;;4911652;29;20036;-84
2021/10/19 11:21:20;;;;;;;1.67;1.58;;;18.10;71.80;;;;;;4880462;29;20061;-84
2021/10/19 11:23:48;;;;;;;2.00;1.65;;;18.10;71.80;;;;;;4880416;29;20112;-83
2021/10/19 11:26:14;;;;;;;1.75;1.50;;;18.10;71.80;;;;;;4880302;29;20033;-83
2021/10/19 11:28:42;;;;;;;1.80;1.60;;;18.10;71.80;;;;;;4864580;29;20115;-83
2021/10/19 11:31:08;;;;;;;1.70;1.52;;;18.10;71.70;;;;;;4880452;29;20040;-84
2021/10/19 11:33:39;;;;;;;2.17;1.73;;;18.20;71.80;;;;;;4864536;29;20029;-83
2021/10/19 11:36:06;;;;;;;2.15;1.50;;;18.20;71.80;;;;;;4881304;29;20385;-83
2021/10/19 11:38:39;;;;;;;1.83;1.45;;;18.20;71.70;;;;;;4880211;29;20471;-84
2021/10/19 11:41:09;;;;;;;1.55;1.42;;;18.30;71.80;;;;;;4880389;29;20063;-83
2021/10/19 11:43:40;;;;;;;1.70;1.55;;;18.30;71.70;;;;;;4880448;29;20029;-84
2021/10/19 11:46:09;;;;;;;1.90;1.48;;;18.30;71.70;;;;;;4880126;29;20041;-84
2021/10/19 11:48:36;;;;;;;2.00;1.63;;;18.30;71.70;;;;;;4880834;29;20089;-83
2021/10/19 11:51:03;;;;;;;2.58;1.70;;;18.30;71.70;;;;;;4895273;29;20436;-84
2021/10/19 11:53:29;;;;;;;2.40;1.70;;;18.30;71.70;;;;;;4880334;29;20060;-83
2021/10/19 11:55:55;;;;;;;1.70;1.48;;;18.40;71.70;;;;;;4879786;29;20060;-83
2021/10/19 11:58:24;;;;;;;2.00;1.70;;;18.40;71.70;;;;;;4881085;29;20052;-84
2021/10/19 12:00:53;;;;;;;2.17;1.80;;;18.50;71.70;;;;;;4880167;29;20033;-83
2021/10/19 12:03:19;;;;;;;2.47;1.90;;;18.40;71.60;;;;;;4864311;29;20041;-85
2021/10/19 12:05:45;;;;;;;2.13;1.77;;;18.50;71.70;;;;;;4864554;29;20037;-83
2021/10/19 12:08:12;;;;;;;2.42;1.90;;;18.50;71.70;;;;;;4879705;29;20096;-84
2021/10/19 12:10:46;;;;;;;2.92;2.00;;;18.50;71.60;;;;;;4864024;29;20026;-82
2021/10/19 12:13:12;;;;;;;2.13;1.85;;;18.50;71.60;;;;;;4879646;29;20037;-84
2021/10/19 12:15:38;;;;;;;2.38;2.00;;;18.60;71.60;;;;;;4881283;29;20048;-83
2021/10/19 12:18:07;;;;;;;2.75;2.05;;;18.60;71.60;;;;;;4880618;29;20108;-84
2021/10/19 12:20:35;;;;;;;2.67;2.10;;;18.60;71.60;;;;;;4866588;29;20053;-84
2021/10/19 12:23:10;;;;;;;2.45;1.90;;;18.60;71.50;;;;;;4899431;29;20454;-83
2021/10/19 12:25:43;;;;;;;2.40;1.90;;;18.60;71.60;;;;;;4900384;29;20029;-84
2021/10/19 12:28:17;;;;;;;2.65;1.92;;;18.70;71.60;;;;;;4882848;29;20047;-85
2021/10/19 12:30:43;;;;;;;3.53;2.30;;;18.70;71.60;;;;;;4882910;29;20493;-83
2021/10/19 12:33:19;;;;;;;2.78;2.10;;;18.70;71.50;;;;;;4882588;29;20033;-83
2021/10/19 12:36:11;;;;;;;2.92;2.20;;;18.70;71.60;;;;;;4882725;29;20029;-83
2021/10/19 12:38:40;;;;;;;2.97;2.17;;;18.80;71.70;;;;;;4863764;29;20124;-83
2021/10/19 12:41:17;;;;;;;2.47;1.95;;;18.70;71.40;;;;;;4887911;29;20485;-83
2021/10/19 12:43:47;;;;;;;2.80;2.08;;;18.80;71.60;;;;;;4888539;29;20466;-83
2021/10/19 12:46:13;;;;;;;3.05;2.20;;;18.80;71.50;;;;;;4888975;29;20059;-83
2021/10/19 12:48:41;;;;;;;3.92;2.30;;;18.80;71.50;;;;;;4888709;29;20025;-83